Monetta, South Carolina
Current Conditions -  °F | °C
As of 3:15 AM on Thursday 27 Nov 2014 (Local Time) from KAIK Reporting Station
Broken Clouds Broken Clouds  
Wind Chill: 41°   Ceiling: 8500
Heat Index: 46°   Visibility: 10mi
Dew Point: 32°   Wind: 13mph
Humidity: 57%   Direction: 220°SW
Pressure: 30.07"   Gusts: NA
Location:  33.85°N, 81.61°W
Report Text: KAIK 270815Z AUTO 22011KT 10SM BKN085 08/00 A3007 RMK AO2 PNO
Loading
Personal Weather Stations






























Interactive Weather Map New forecast layout! Learn more

10-Day Weather Forecast

Advertisements
Track Severe Weather on mobile